sensor_id;sensor_type;location;lat;lon;timestamp;P1;durP1;ratioP1;P2;durP2;ratioP2
39140;SDS011;24875;48.436;10.298;2023-08-12T00:01:51;2.95;;;1.63;;
39140;SDS011;24875;48.436;10.298;2023-08-12T00:04:18;2.08;;;1.30;;
39140;SDS011;24875;48.436;10.298;2023-08-12T00:06:44;2.88;;;1.63;;
39140;SDS011;24875;48.436;10.298;2023-08-12T00:09:11;2.03;;;1.42;;
39140;SDS011;24875;48.436;10.298;2023-08-12T00:11:40;3.33;;;1.90;;
39140;SDS011;24875;48.436;10.298;2023-08-12T00:14:06;5.18;;;1.50;;
39140;SDS011;24875;48.436;10.298;2023-08-12T00:16:33;2.50;;;1.50;;
39140;SDS011;24875;48.436;10.298;2023-08-12T00:19:01;4.15;;;1.50;;
39140;SDS011;24875;48.436;10.298;2023-08-12T00:21:27;3.55;;;1.65;;
39140;SDS011;24875;48.436;10.298;2023-08-12T00:23:54;7.68;;;1.70;;
39140;SDS011;24875;48.436;10.298;2023-08-12T00:26:20;3.95;;;1.75;;
39140;SDS011;24875;48.436;10.298;2023-08-12T00:28:48;2.92;;;1.17;;
39140;SDS011;24875;48.436;10.298;2023-08-12T00:31:15;2.22;;;1.38;;
39140;SDS011;24875;48.436;10.298;2023-08-12T00:33:41;5.80;;;1.70;;
39140;SDS011;24875;48.436;10.298;2023-08-12T00:36:09;2.15;;;1.35;;
39140;SDS011;24875;48.436;10.298;2023-08-12T00:38:36;2.53;;;1.40;;
39140;SDS011;24875;48.436;10.298;2023-08-12T00:41:03;4.18;;;1.83;;
39140;SDS011;24875;48.436;10.298;2023-08-12T00:43:29;3.58;;;1.63;;
39140;SDS011;24875;48.436;10.298;2023-08-12T00:45:56;4.97;;;1.60;;
39140;SDS011;24875;48.436;10.298;2023-08-12T00:48:23;3.10;;;1.88;;
39140;SDS011;24875;48.436;10.298;2023-08-12T00:50:50;6.05;;;1.83;;
39140;SDS011;24875;48.436;10.298;2023-08-12T00:53:18;5.78;;;1.90;;
39140;SDS011;24875;48.436;10.298;2023-08-12T00:55:46;2.03;;;1.38;;
39140;SDS011;24875;48.436;10.298;2023-08-12T00:58:13;2.17;;;1.20;;
39140;SDS011;24875;48.436;10.298;2023-08-12T01:00:39;3.67;;;1.88;;
39140;SDS011;24875;48.436;10.298;2023-08-12T01:03:06;3.22;;;1.73;;
39140;SDS011;24875;48.436;10.298;2023-08-12T01:05:33;3.25;;;1.70;;
39140;SDS011;24875;48.436;10.298;2023-08-12T01:08:00;4.22;;;1.30;;
39140;SDS011;24875;48.436;10.298;2023-08-12T01:10:29;1.85;;;1.45;;
39140;SDS011;24875;48.436;10.298;2023-08-12T01:13:02;3.17;;;1.40;;
39140;SDS011;24875;48.436;10.298;2023-08-12T01:15:36;2.97;;;1.48;;
39140;SDS011;24875;48.436;10.298;2023-08-12T01:18:04;2.83;;;1.50;;
39140;SDS011;24875;48.436;10.298;2023-08-12T01:20:33;2.33;;;1.50;;
39140;SDS011;24875;48.436;10.298;2023-08-12T01:23:06;3.58;;;1.67;;
39140;SDS011;24875;48.436;10.298;2023-08-12T01:25:35;4.15;;;1.73;;
39140;SDS011;24875;48.436;10.298;2023-08-12T01:28:02;4.13;;;1.88;;
39140;SDS011;24875;48.436;10.298;2023-08-12T01:30:29;4.13;;;1.77;;
39140;SDS011;24875;48.436;10.298;2023-08-12T01:32:57;2.17;;;1.60;;
39140;SDS011;24875;48.436;10.298;2023-08-12T01:35:30;2.85;;;1.45;;
39140;SDS011;24875;48.436;10.298;2023-08-12T01:38:02;2.45;;;1.50;;
39140;SDS011;24875;48.436;10.298;2023-08-12T01:40:31;4.00;;;1.42;;
39140;SDS011;24875;48.436;10.298;2023-08-12T01:42:59;3.17;;;1.85;;
39140;SDS011;24875;48.436;10.298;2023-08-12T01:45:29;1.38;;;1.00;;
39140;SDS011;24875;48.436;10.298;2023-08-12T01:47:57;3.00;;;1.85;;
39140;SDS011;24875;48.436;10.298;2023-08-12T01:50:23;1.92;;;1.50;;
39140;SDS011;24875;48.436;10.298;2023-08-12T01:52:50;2.25;;;1.60;;
39140;SDS011;24875;48.436;10.298;2023-08-12T01:55:17;3.38;;;2.00;;
39140;SDS011;24875;48.436;10.298;2023-08-12T01:57:45;2.25;;;1.45;;
39140;SDS011;24875;48.436;10.298;2023-08-12T02:00:12;2.30;;;1.48;;
39140;SDS011;24875;48.436;10.298;2023-08-12T02:02:38;6.25;;;1.75;;
39140;SDS011;24875;48.436;10.298;2023-08-12T02:05:05;3.25;;;1.73;;
39140;SDS011;24875;48.436;10.298;2023-08-12T02:07:32;2.67;;;1.48;;
39140;SDS011;24875;48.436;10.298;2023-08-12T02:09:59;3.65;;;1.90;;
39140;SDS011;24875;48.436;10.298;2023-08-12T02:12:25;2.05;;;1.50;;
39140;SDS011;24875;48.436;10.298;2023-08-12T02:14:53;2.75;;;1.80;;
39140;SDS011;24875;48.436;10.298;2023-08-12T02:17:19;2.08;;;1.48;;
39140;SDS011;24875;48.436;10.298;2023-08-12T02:19:46;2.25;;;1.50;;
39140;SDS011;24875;48.436;10.298;2023-08-12T02:24:43;3.13;;;1.67;;
39140;SDS011;24875;48.436;10.298;2023-08-12T02:27:10;3.00;;;1.60;;
39140;SDS011;24875;48.436;10.298;2023-08-12T02:29:36;2.20;;;1.50;;
39140;SDS011;24875;48.436;10.298;2023-08-12T02:32:03;2.58;;;1.88;;
39140;SDS011;24875;48.436;10.298;2023-08-12T02:34:30;3.13;;;1.67;;
39140;SDS011;24875;48.436;10.298;2023-08-12T02:36:57;3.00;;;1.67;;
39140;SDS011;24875;48.436;10.298;2023-08-12T02:39:23;6.72;;;1.67;;
39140;SDS011;24875;48.436;10.298;2023-08-12T02:41:51;2.30;;;1.70;;
39140;SDS011;24875;48.436;10.298;2023-08-12T02:44:18;2.58;;;1.30;;
39140;SDS011;24875;48.436;10.298;2023-08-12T02:46:45;2.40;;;1.40;;
39140;SDS011;24875;48.436;10.298;2023-08-12T02:49:12;3.63;;;1.80;;
39140;SDS011;24875;48.436;10.298;2023-08-12T02:51:38;2.95;;;1.60;;
39140;SDS011;24875;48.436;10.298;2023-08-12T02:54:05;3.13;;;1.35;;
39140;SDS011;24875;48.436;10.298;2023-08-12T02:56:31;2.83;;;1.50;;
39140;SDS011;24875;48.436;10.298;2023-08-12T02:58:59;2.55;;;1.83;;
39140;SDS011;24875;48.436;10.298;2023-08-12T03:01:26;2.70;;;1.60;;
39140;SDS011;24875;48.436;10.298;2023-08-12T03:03:52;2.72;;;1.95;;
39140;SDS011;24875;48.436;10.298;2023-08-12T03:06:19;7.00;;;1.88;;
39140;SDS011;24875;48.436;10.298;2023-08-12T03:08:46;2.75;;;1.55;;
39140;SDS011;24875;48.436;10.298;2023-08-12T03:11:13;4.50;;;2.22;;
39140;SDS011;24875;48.436;10.298;2023-08-12T03:13:40;2.53;;;1.42;;
39140;SDS011;24875;48.436;10.298;2023-08-12T03:16:11;4.55;;;2.00;;
39140;SDS011;24875;48.436;10.298;2023-08-12T03:18:39;3.38;;;2.03;;
39140;SDS011;24875;48.436;10.298;2023-08-12T03:21:06;2.92;;;1.73;;
39140;SDS011;24875;48.436;10.298;2023-08-12T03:23:33;4.25;;;2.40;;
39140;SDS011;24875;48.436;10.298;2023-08-12T03:25:59;3.75;;;1.88;;
39140;SDS011;24875;48.436;10.298;2023-08-12T03:28:26;3.55;;;1.98;;
39140;SDS011;24875;48.436;10.298;2023-08-12T03:30:52;2.95;;;1.77;;
39140;SDS011;24875;48.436;10.298;2023-08-12T03:33:20;2.67;;;1.77;;
39140;SDS011;24875;48.436;10.298;2023-08-12T03:35:47;4.32;;;1.90;;
39140;SDS011;24875;48.436;10.298;2023-08-12T03:38:14;4.68;;;1.70;;
39140;SDS011;24875;48.436;10.298;2023-08-12T03:40:41;2.95;;;1.63;;
39140;SDS011;24875;48.436;10.298;2023-08-12T03:43:08;2.92;;;1.92;;
39140;SDS011;24875;48.436;10.298;2023-08-12T03:45:38;3.60;;;2.30;;
39140;SDS011;24875;48.436;10.298;2023-08-12T03:48:05;4.30;;;2.28;;
39140;SDS011;24875;48.436;10.298;2023-08-12T03:50:34;3.95;;;2.13;;
39140;SDS011;24875;48.436;10.298;2023-08-12T03:53:01;3.22;;;1.50;;
39140;SDS011;24875;48.436;10.298;2023-08-12T03:55:29;2.55;;;1.70;;
39140;SDS011;24875;48.436;10.298;2023-08-12T03:57:56;4.90;;;1.88;;
39140;SDS011;24875;48.436;10.298;2023-08-12T04:00:23;5.28;;;2.42;;
39140;SDS011;24875;48.436;10.298;2023-08-12T04:02:50;4.07;;;1.90;;
39140;SDS011;24875;48.436;10.298;2023-08-12T04:05:16;3.10;;;1.80;;
39140;SDS011;24875;48.436;10.298;2023-08-12T04:07:44;3.13;;;2.03;;
39140;SDS011;24875;48.436;10.298;2023-08-12T04:10:10;2.58;;;1.90;;
39140;SDS011;24875;48.436;10.298;2023-08-12T04:12:37;2.92;;;1.85;;
39140;SDS011;24875;48.436;10.298;2023-08-12T04:15:04;7.43;;;1.80;;
39140;SDS011;24875;48.436;10.298;2023-08-12T04:17:31;3.42;;;1.90;;
39140;SDS011;24875;48.436;10.298;2023-08-12T04:19:58;3.88;;;1.88;;
39140;SDS011;24875;48.436;10.298;2023-08-12T04:22:24;4.05;;;2.33;;
39140;SDS011;24875;48.436;10.298;2023-08-12T04:24:52;5.65;;;1.85;;
39140;SDS011;24875;48.436;10.298;2023-08-12T04:27:19;5.43;;;2.28;;
39140;SDS011;24875;48.436;10.298;2023-08-12T04:29:46;3.47;;;1.90;;
39140;SDS011;24875;48.436;10.298;2023-08-12T04:32:13;3.75;;;1.90;;
39140;SDS011;24875;48.436;10.298;2023-08-12T04:34:39;2.42;;;1.80;;
39140;SDS011;24875;48.436;10.298;2023-08-12T04:37:06;4.60;;;2.45;;
39140;SDS011;24875;48.436;10.298;2023-08-12T04:39:32;3.80;;;2.08;;
39140;SDS011;24875;48.436;10.298;2023-08-12T04:42:00;3.05;;;1.92;;
39140;SDS011;24875;48.436;10.298;2023-08-12T04:44:26;12.95;;;2.33;;
39140;SDS011;24875;48.436;10.298;2023-08-12T04:46:53;4.40;;;2.17;;
39140;SDS011;24875;48.436;10.298;2023-08-12T04:49:19;5.22;;;2.42;;
39140;SDS011;24875;48.436;10.298;2023-08-12T04:51:48;7.10;;;2.10;;
39140;SDS011;24875;48.436;10.298;2023-08-12T04:54:17;3.63;;;2.03;;
39140;SDS011;24875;48.436;10.298;2023-08-12T04:56:44;6.13;;;2.17;;
39140;SDS011;24875;48.436;10.298;2023-08-12T04:59:11;4.90;;;1.70;;
39140;SDS011;24875;48.436;10.298;2023-08-12T05:01:38;3.45;;;1.65;;
39140;SDS011;24875;48.436;10.298;2023-08-12T05:04:05;3.25;;;1.58;;
39140;SDS011;24875;48.436;10.298;2023-08-12T05:06:31;1.90;;;1.52;;
39140;SDS011;24875;48.436;10.298;2023-08-12T05:08:58;2.58;;;1.75;;
39140;SDS011;24875;48.436;10.298;2023-08-12T05:11:24;3.90;;;1.90;;
39140;SDS011;24875;48.436;10.298;2023-08-12T05:13:51;2.78;;;1.65;;
39140;SDS011;24875;48.436;10.298;2023-08-12T05:16:19;2.50;;;1.55;;
39140;SDS011;24875;48.436;10.298;2023-08-12T05:18:45;3.55;;;2.10;;
39140;SDS011;24875;48.436;10.298;2023-08-12T05:21:11;3.78;;;1.98;;
39140;SDS011;24875;48.436;10.298;2023-08-12T05:23:38;3.47;;;1.83;;
39140;SDS011;24875;48.436;10.298;2023-08-12T05:26:04;4.18;;;2.30;;
39140;SDS011;24875;48.436;10.298;2023-08-12T05:28:31;4.18;;;2.70;;
39140;SDS011;24875;48.436;10.298;2023-08-12T05:30:58;3.65;;;2.13;;
39140;SDS011;24875;48.436;10.298;2023-08-12T05:33:25;5.40;;;2.58;;
39140;SDS011;24875;48.436;10.298;2023-08-12T05:35:52;4.35;;;2.35;;
39140;SDS011;24875;48.436;10.298;2023-08-12T05:38:19;4.70;;;2.38;;
39140;SDS011;24875;48.436;10.298;2023-08-12T05:40:45;5.53;;;2.42;;
39140;SDS011;24875;48.436;10.298;2023-08-12T05:43:12;5.18;;;2.70;;
39140;SDS011;24875;48.436;10.298;2023-08-12T05:45:38;5.55;;;2.80;;
39140;SDS011;24875;48.436;10.298;2023-08-12T05:48:05;6.72;;;3.15;;
39140;SDS011;24875;48.436;10.298;2023-08-12T05:50:33;6.80;;;3.00;;
39140;SDS011;24875;48.436;10.298;2023-08-12T05:53:00;7.38;;;3.05;;
39140;SDS011;24875;48.436;10.298;2023-08-12T05:55:26;4.43;;;2.70;;
39140;SDS011;24875;48.436;10.298;2023-08-12T05:57:53;7.75;;;3.35;;
39140;SDS011;24875;48.436;10.298;2023-08-12T06:00:19;7.10;;;3.15;;
39140;SDS011;24875;48.436;10.298;2023-08-12T06:02:46;4.22;;;2.45;;
39140;SDS011;24875;48.436;10.298;2023-08-12T06:05:12;6.88;;;3.35;;
39140;SDS011;24875;48.436;10.298;2023-08-12T06:07:40;4.65;;;2.92;;
39140;SDS011;24875;48.436;10.298;2023-08-12T06:10:07;6.93;;;2.88;;
39140;SDS011;24875;48.436;10.298;2023-08-12T06:12:34;5.88;;;2.55;;
39140;SDS011;24875;48.436;10.298;2023-08-12T06:15:00;4.22;;;2.30;;
39140;SDS011;24875;48.436;10.298;2023-08-12T06:17:27;5.55;;;2.92;;
39140;SDS011;24875;48.436;10.298;2023-08-12T06:19:53;5.65;;;2.75;;
39140;SDS011;24875;48.436;10.298;2023-08-12T06:22:20;5.07;;;2.85;;
39140;SDS011;24875;48.436;10.298;2023-08-12T06:24:48;6.93;;;2.90;;
39140;SDS011;24875;48.436;10.298;2023-08-12T06:27:14;4.68;;;2.65;;
39140;SDS011;24875;48.436;10.298;2023-08-12T06:29:41;5.63;;;2.17;;
39140;SDS011;24875;48.436;10.298;2023-08-12T06:32:07;4.65;;;2.63;;
39140;SDS011;24875;48.436;10.298;2023-08-12T06:34:37;4.07;;;2.50;;
39140;SDS011;24875;48.436;10.298;2023-08-12T06:37:04;6.45;;;3.10;;
39140;SDS011;24875;48.436;10.298;2023-08-12T06:39:30;9.50;;;3.05;;
39140;SDS011;24875;48.436;10.298;2023-08-12T06:41:58;8.05;;;2.78;;
39140;SDS011;24875;48.436;10.298;2023-08-12T06:44:25;3.53;;;2.33;;
39140;SDS011;24875;48.436;10.298;2023-08-12T06:46:51;3.83;;;2.58;;
39140;SDS011;24875;48.436;10.298;2023-08-12T06:49:18;4.53;;;2.85;;
39140;SDS011;24875;48.436;10.298;2023-08-12T06:51:44;5.22;;;2.67;;
39140;SDS011;24875;48.436;10.298;2023-08-12T06:54:11;4.63;;;2.70;;
39140;SDS011;24875;48.436;10.298;2023-08-12T06:56:37;4.85;;;2.63;;
39140;SDS011;24875;48.436;10.298;2023-08-12T06:59:05;3.88;;;2.25;;
39140;SDS011;24875;48.436;10.298;2023-08-12T07:01:32;4.93;;;2.33;;
39140;SDS011;24875;48.436;10.298;2023-08-12T07:03:58;4.30;;;2.45;;
39140;SDS011;24875;48.436;10.298;2023-08-12T07:06:25;7.15;;;2.45;;
39140;SDS011;24875;48.436;10.298;2023-08-12T07:08:51;7.90;;;3.05;;
39140;SDS011;24875;48.436;10.298;2023-08-12T07:11:18;6.30;;;3.10;;
39140;SDS011;24875;48.436;10.298;2023-08-12T07:13:45;6.18;;;3.58;;
39140;SDS011;24875;48.436;10.298;2023-08-12T07:16:13;6.85;;;3.28;;
39140;SDS011;24875;48.436;10.298;2023-08-12T07:18:39;9.25;;;3.83;;
39140;SDS011;24875;48.436;10.298;2023-08-12T07:21:06;7.50;;;3.30;;
39140;SDS011;24875;48.436;10.298;2023-08-12T07:23:32;5.57;;;3.13;;
39140;SDS011;24875;48.436;10.298;2023-08-12T07:25:59;5.40;;;3.38;;
39140;SDS011;24875;48.436;10.298;2023-08-12T07:28:25;9.30;;;3.67;;
39140;SDS011;24875;48.436;10.298;2023-08-12T07:30:52;8.45;;;3.03;;
39140;SDS011;24875;48.436;10.298;2023-08-12T07:33:20;5.03;;;3.25;;
39140;SDS011;24875;48.436;10.298;2023-08-12T07:35:47;5.68;;;3.40;;
39140;SDS011;24875;48.436;10.298;2023-08-12T07:38:14;5.95;;;3.35;;
39140;SDS011;24875;48.436;10.298;2023-08-12T07:40:40;8.82;;;3.95;;
39140;SDS011;24875;48.436;10.298;2023-08-12T07:43:07;4.78;;;3.35;;
39140;SDS011;24875;48.436;10.298;2023-08-12T07:45:33;12.10;;;3.15;;
39140;SDS011;24875;48.436;10.298;2023-08-12T07:48:00;5.38;;;3.05;;
39140;SDS011;24875;48.436;10.298;2023-08-12T07:50:27;6.95;;;4.25;;
39140;SDS011;24875;48.436;10.298;2023-08-12T07:52:54;7.22;;;3.58;;
39140;SDS011;24875;48.436;10.298;2023-08-12T07:55:20;7.78;;;3.72;;
39140;SDS011;24875;48.436;10.298;2023-08-12T07:57:47;7.18;;;3.22;;
39140;SDS011;24875;48.436;10.298;2023-08-12T08:00:14;7.53;;;3.67;;
39140;SDS011;24875;48.436;10.298;2023-08-12T08:02:40;6.00;;;3.08;;
39140;SDS011;24875;48.436;10.298;2023-08-12T08:05:07;8.27;;;4.20;;
39140;SDS011;24875;48.436;10.298;2023-08-12T08:07:35;7.78;;;3.60;;
39140;SDS011;24875;48.436;10.298;2023-08-12T08:10:02;6.20;;;2.80;;
39140;SDS011;24875;48.436;10.298;2023-08-12T08:12:28;7.93;;;4.15;;
39140;SDS011;24875;48.436;10.298;2023-08-12T08:14:55;5.63;;;2.97;;
39140;SDS011;24875;48.436;10.298;2023-08-12T08:17:21;7.20;;;3.47;;
39140;SDS011;24875;48.436;10.298;2023-08-12T08:19:48;5.07;;;2.80;;
39140;SDS011;24875;48.436;10.298;2023-08-12T08:22:14;6.47;;;3.67;;
39140;SDS011;24875;48.436;10.298;2023-08-12T08:24:42;5.28;;;2.85;;
39140;SDS011;24875;48.436;10.298;2023-08-12T08:27:09;7.80;;;3.10;;
39140;SDS011;24875;48.436;10.298;2023-08-12T08:29:35;7.20;;;3.30;;
39140;SDS011;24875;48.436;10.298;2023-08-12T08:32:02;5.95;;;2.97;;
39140;SDS011;24875;48.436;10.298;2023-08-12T08:34:29;7.45;;;3.22;;
39140;SDS011;24875;48.436;10.298;2023-08-12T08:36:55;6.50;;;3.35;;
39140;SDS011;24875;48.436;10.298;2023-08-12T08:39:22;6.85;;;3.13;;
39140;SDS011;24875;48.436;10.298;2023-08-12T08:41:50;7.50;;;2.83;;
39140;SDS011;24875;48.436;10.298;2023-08-12T08:44:21;5.03;;;3.10;;
39140;SDS011;24875;48.436;10.298;2023-08-12T08:46:49;7.75;;;3.30;;
39140;SDS011;24875;48.436;10.298;2023-08-12T08:49:17;6.10;;;2.88;;
39140;SDS011;24875;48.436;10.298;2023-08-12T08:51:45;6.55;;;2.90;;
39140;SDS011;24875;48.436;10.298;2023-08-12T08:54:13;5.20;;;2.72;;
39140;SDS011;24875;48.436;10.298;2023-08-12T08:56:40;5.03;;;2.70;;
39140;SDS011;24875;48.436;10.298;2023-08-12T08:59:07;5.82;;;3.58;;
39140;SDS011;24875;48.436;10.298;2023-08-12T09:01:34;4.43;;;2.53;;
39140;SDS011;24875;48.436;10.298;2023-08-12T09:04:02;5.00;;;2.65;;
39140;SDS011;24875;48.436;10.298;2023-08-12T09:06:29;6.82;;;2.97;;
39140;SDS011;24875;48.436;10.298;2023-08-12T09:08:58;3.75;;;2.50;;
39140;SDS011;24875;48.436;10.298;2023-08-12T09:11:26;4.32;;;2.33;;
39140;SDS011;24875;48.436;10.298;2023-08-12T09:13:53;5.57;;;2.63;;
39140;SDS011;24875;48.436;10.298;2023-08-12T09:16:21;4.53;;;2.38;;
39140;SDS011;24875;48.436;10.298;2023-08-12T09:18:49;3.28;;;2.05;;
39140;SDS011;24875;48.436;10.298;2023-08-12T09:21:22;5.93;;;3.13;;
39140;SDS011;24875;48.436;10.298;2023-08-12T09:23:49;6.57;;;3.03;;
39140;SDS011;24875;48.436;10.298;2023-08-12T09:26:16;4.75;;;2.38;;
39140;SDS011;24875;48.436;10.298;2023-08-12T09:28:43;4.57;;;2.25;;
39140;SDS011;24875;48.436;10.298;2023-08-12T09:31:12;4.55;;;2.10;;
39140;SDS011;24875;48.436;10.298;2023-08-12T09:33:50;5.57;;;2.20;;
39140;SDS011;24875;48.436;10.298;2023-08-12T09:36:16;4.43;;;2.50;;
39140;SDS011;24875;48.436;10.298;2023-08-12T09:38:43;6.53;;;2.40;;
39140;SDS011;24875;48.436;10.298;2023-08-12T09:41:10;6.72;;;2.63;;
39140;SDS011;24875;48.436;10.298;2023-08-12T09:43:39;3.17;;;1.92;;
39140;SDS011;24875;48.436;10.298;2023-08-12T09:46:06;4.18;;;1.77;;
39140;SDS011;24875;48.436;10.298;2023-08-12T09:48:37;2.28;;;1.60;;
39140;SDS011;24875;48.436;10.298;2023-08-12T09:51:04;3.30;;;1.92;;
39140;SDS011;24875;48.436;10.298;2023-08-12T09:53:31;4.15;;;1.55;;
39140;SDS011;24875;48.436;10.298;2023-08-12T09:55:59;2.88;;;1.90;;
39140;SDS011;24875;48.436;10.298;2023-08-12T09:58:31;2.55;;;1.65;;
39140;SDS011;24875;48.436;10.298;2023-08-12T10:01:00;5.70;;;2.30;;
39140;SDS011;24875;48.436;10.298;2023-08-12T10:03:28;18.08;;;1.98;;
39140;SDS011;24875;48.436;10.298;2023-08-12T10:05:57;3.63;;;1.80;;
39140;SDS011;24875;48.436;10.298;2023-08-12T10:08:23;6.72;;;2.28;;
39140;SDS011;24875;48.436;10.298;2023-08-12T10:10:51;2.65;;;1.80;;
39140;SDS011;24875;48.436;10.298;2023-08-12T10:13:17;2.83;;;1.77;;
39140;SDS011;24875;48.436;10.298;2023-08-12T10:15:45;2.22;;;1.60;;
39140;SDS011;24875;48.436;10.298;2023-08-12T10:18:12;2.90;;;2.20;;
39140;SDS011;24875;48.436;10.298;2023-08-12T10:20:40;2.42;;;1.60;;
39140;SDS011;24875;48.436;10.298;2023-08-12T10:23:15;2.88;;;1.73;;
39140;SDS011;24875;48.436;10.298;2023-08-12T10:25:43;3.03;;;1.83;;
39140;SDS011;24875;48.436;10.298;2023-08-12T10:28:10;5.38;;;1.80;;
39140;SDS011;24875;48.436;10.298;2023-08-12T10:30:37;2.47;;;1.52;;
39140;SDS011;24875;48.436;10.298;2023-08-12T10:33:06;2.08;;;1.48;;
39140;SDS011;24875;48.436;10.298;2023-08-12T10:35:45;2.03;;;1.48;;
39140;SDS011;24875;48.436;10.298;2023-08-12T10:38:16;4.53;;;2.28;;
39140;SDS011;24875;48.436;10.298;2023-08-12T10:40:44;2.42;;;1.52;;
39140;SDS011;24875;48.436;10.298;2023-08-12T10:43:11;3.03;;;1.80;;
39140;SDS011;24875;48.436;10.298;2023-08-12T10:45:41;3.05;;;1.80;;
39140;SDS011;24875;48.436;10.298;2023-08-12T10:48:09;2.80;;;1.77;;
39140;SDS011;24875;48.436;10.298;2023-08-12T10:50:43;3.47;;;2.10;;
39140;SDS011;24875;48.436;10.298;2023-08-12T10:53:21;1.88;;;1.50;;
39140;SDS011;24875;48.436;10.298;2023-08-12T10:55:55;2.92;;;1.48;;
39140;SDS011;24875;48.436;10.298;2023-08-12T10:58:29;2.33;;;1.70;;
39140;SDS011;24875;48.436;10.298;2023-08-12T11:01:00;1.83;;;1.25;;
39140;SDS011;24875;48.436;10.298;2023-08-12T11:03:30;1.50;;;1.30;;
39140;SDS011;24875;48.436;10.298;2023-08-12T11:05:59;3.05;;;1.73;;
39140;SDS011;24875;48.436;10.298;2023-08-12T11:08:27;2.80;;;1.55;;
39140;SDS011;24875;48.436;10.298;2023-08-12T11:10:54;2.95;;;1.60;;
39140;SDS011;24875;48.436;10.298;2023-08-12T11:13:23;2.45;;;1.60;;
39140;SDS011;24875;48.436;10.298;2023-08-12T11:15:52;2.40;;;1.33;;
39140;SDS011;24875;48.436;10.298;2023-08-12T11:18:32;2.72;;;1.52;;
39140;SDS011;24875;48.436;10.298;2023-08-12T11:20:59;1.75;;;1.30;;
39140;SDS011;24875;48.436;10.298;2023-08-12T11:23:27;2.28;;;1.23;;
39140;SDS011;24875;48.436;10.298;2023-08-12T11:25:55;2.35;;;1.02;;
39140;SDS011;24875;48.436;10.298;2023-08-12T11:28:21;1.20;;;1.10;;
39140;SDS011;24875;48.436;10.298;2023-08-12T11:30:50;1.92;;;1.25;;
39140;SDS011;24875;48.436;10.298;2023-08-12T11:33:16;3.47;;;1.65;;
39140;SDS011;24875;48.436;10.298;2023-08-12T11:35:45;3.75;;;1.40;;
39140;SDS011;24875;48.436;10.298;2023-08-12T11:38:11;2.35;;;1.50;;
39140;SDS011;24875;48.436;10.298;2023-08-12T11:40:39;2.10;;;1.50;;
39140;SDS011;24875;48.436;10.298;2023-08-12T11:43:06;2.53;;;1.90;;
39140;SDS011;24875;48.436;10.298;2023-08-12T11:45:33;2.55;;;1.40;;
39140;SDS011;24875;48.436;10.298;2023-08-12T11:47:59;1.90;;;1.45;;
39140;SDS011;24875;48.436;10.298;2023-08-12T11:50:26;4.57;;;1.48;;
39140;SDS011;24875;48.436;10.298;2023-08-12T11:52:53;2.05;;;1.20;;
39140;SDS011;24875;48.436;10.298;2023-08-12T11:55:22;2.10;;;1.30;;
39140;SDS011;24875;48.436;10.298;2023-08-12T11:57:51;1.80;;;1.40;;
39140;SDS011;24875;48.436;10.298;2023-08-12T12:00:18;2.20;;;1.20;;
39140;SDS011;24875;48.436;10.298;2023-08-12T12:02:46;2.88;;;1.65;;
39140;SDS011;24875;48.436;10.298;2023-08-12T12:05:15;3.80;;;2.00;;
39140;SDS011;24875;48.436;10.298;2023-08-12T12:07:42;2.40;;;1.52;;
39140;SDS011;24875;48.436;10.298;2023-08-12T12:10:12;2.75;;;1.42;;
39140;SDS011;24875;48.436;10.298;2023-08-12T12:12:39;2.65;;;1.73;;
39140;SDS011;24875;48.436;10.298;2023-08-12T12:15:07;2.63;;;1.30;;
39140;SDS011;24875;48.436;10.298;2023-08-12T12:17:38;2.60;;;1.65;;
39140;SDS011;24875;48.436;10.298;2023-08-12T12:20:05;3.95;;;1.85;;
39140;SDS011;24875;48.436;10.298;2023-08-12T12:22:35;2.35;;;1.67;;
39140;SDS011;24875;48.436;10.298;2023-08-12T12:25:05;2.75;;;1.83;;
39140;SDS011;24875;48.436;10.298;2023-08-12T12:27:32;2.35;;;1.63;;
39140;SDS011;24875;48.436;10.298;2023-08-12T12:29:59;2.67;;;1.70;;
39140;SDS011;24875;48.436;10.298;2023-08-12T12:32:27;3.03;;;1.90;;
39140;SDS011;24875;48.436;10.298;2023-08-12T12:34:54;2.97;;;1.70;;
39140;SDS011;24875;48.436;10.298;2023-08-12T12:37:21;3.10;;;1.48;;
39140;SDS011;24875;48.436;10.298;2023-08-12T12:39:47;4.00;;;1.73;;
39140;SDS011;24875;48.436;10.298;2023-08-12T12:42:14;2.42;;;1.33;;
39140;SDS011;24875;48.436;10.298;2023-08-12T12:44:40;2.85;;;1.90;;
39140;SDS011;24875;48.436;10.298;2023-08-12T12:47:07;2.70;;;1.27;;
39140;SDS011;24875;48.436;10.298;2023-08-12T12:49:36;3.30;;;1.52;;
39140;SDS011;24875;48.436;10.298;2023-08-12T12:52:03;2.67;;;1.50;;
39140;SDS011;24875;48.436;10.298;2023-08-12T12:54:30;3.28;;;1.63;;
39140;SDS011;24875;48.436;10.298;2023-08-12T12:56:56;3.65;;;2.03;;
39140;SDS011;24875;48.436;10.298;2023-08-12T12:59:23;2.60;;;1.90;;
39140;SDS011;24875;48.436;10.298;2023-08-12T13:01:49;1.90;;;1.40;;
39140;SDS011;24875;48.436;10.298;2023-08-12T13:04:16;2.50;;;1.73;;
39140;SDS011;24875;48.436;10.298;2023-08-12T13:06:44;3.08;;;1.55;;
39140;SDS011;24875;48.436;10.298;2023-08-12T13:09:11;2.17;;;1.55;;
39140;SDS011;24875;48.436;10.298;2023-08-12T13:11:37;3.13;;;1.92;;
39140;SDS011;24875;48.436;10.298;2023-08-12T13:14:04;2.95;;;1.75;;
39140;SDS011;24875;48.436;10.298;2023-08-12T13:16:30;4.03;;;1.95;;
39140;SDS011;24875;48.436;10.298;2023-08-12T13:18:57;2.40;;;1.65;;
39140;SDS011;24875;48.436;10.298;2023-08-12T13:21:24;4.22;;;2.00;;
39140;SDS011;24875;48.436;10.298;2023-08-12T13:23:52;5.05;;;1.70;;
39140;SDS011;24875;48.436;10.298;2023-08-12T13:26:20;2.13;;;1.58;;
39140;SDS011;24875;48.436;10.298;2023-08-12T13:28:47;2.63;;;1.30;;
39140;SDS011;24875;48.436;10.298;2023-08-12T13:31:13;3.70;;;1.88;;
39140;SDS011;24875;48.436;10.298;2023-08-12T13:33:40;4.25;;;1.60;;
39140;SDS011;24875;48.436;10.298;2023-08-12T13:36:06;2.83;;;1.95;;
39140;SDS011;24875;48.436;10.298;2023-08-12T13:38:33;3.00;;;1.65;;
39140;SDS011;24875;48.436;10.298;2023-08-12T13:41:01;4.47;;;1.83;;
39140;SDS011;24875;48.436;10.298;2023-08-12T13:43:27;3.13;;;1.35;;
39140;SDS011;24875;48.436;10.298;2023-08-12T13:45:55;1.73;;;1.27;;
39140;SDS011;24875;48.436;10.298;2023-08-12T13:48:21;1.60;;;1.20;;
39140;SDS011;24875;48.436;10.298;2023-08-12T13:50:48;2.28;;;1.13;;
39140;SDS011;24875;48.436;10.298;2023-08-12T13:53:15;1.98;;;1.00;;
39140;SDS011;24875;48.436;10.298;2023-08-12T13:55:42;2.15;;;1.05;;
39140;SDS011;24875;48.436;10.298;2023-08-12T13:58:09;4.13;;;1.85;;
39140;SDS011;24875;48.436;10.298;2023-08-12T14:00:37;1.50;;;1.05;;
39140;SDS011;24875;48.436;10.298;2023-08-12T14:03:04;2.50;;;1.40;;
39140;SDS011;24875;48.436;10.298;2023-08-12T14:05:30;1.52;;;1.30;;
39140;SDS011;24875;48.436;10.298;2023-08-12T14:07:57;2.50;;;1.50;;
39140;SDS011;24875;48.436;10.298;2023-08-12T14:10:24;1.75;;;1.23;;
39140;SDS011;24875;48.436;10.298;2023-08-12T14:12:50;2.30;;;1.50;;
39140;SDS011;24875;48.436;10.298;2023-08-12T14:15:18;2.20;;;1.58;;
39140;SDS011;24875;48.436;10.298;2023-08-12T14:17:45;2.20;;;1.42;;
39140;SDS011;24875;48.436;10.298;2023-08-12T14:20:11;1.95;;;1.15;;
39140;SDS011;24875;48.436;10.298;2023-08-12T14:22:40;2.05;;;1.30;;
39140;SDS011;24875;48.436;10.298;2023-08-12T14:25:08;1.40;;;1.13;;
39140;SDS011;24875;48.436;10.298;2023-08-12T14:27:36;4.50;;;1.67;;
39140;SDS011;24875;48.436;10.298;2023-08-12T14:30:03;6.60;;;1.23;;
39140;SDS011;24875;48.436;10.298;2023-08-12T14:32:31;1.67;;;0.98;;
39140;SDS011;24875;48.436;10.298;2023-08-12T14:34:57;1.30;;;1.00;;
39140;SDS011;24875;48.436;10.298;2023-08-12T14:37:24;2.58;;;1.00;;